sensor_id;sensor_type;location;lat;lon;timestamp;temperature;humidity
59556;DHT22;45374;52.746;6.304;2023-04-25T00:00:41;5.60;99.90
59556;DHT22;45374;52.746;6.304;2023-04-25T00:03:07;5.60;99.90
59556;DHT22;45374;52.746;6.304;2023-04-25T00:05:34;5.50;99.90
59556;DHT22;45374;52.746;6.304;2023-04-25T00:08:02;5.40;99.90
59556;DHT22;45374;52.746;6.304;2023-04-25T00:10:28;5.30;99.90
59556;DHT22;45374;52.746;6.304;2023-04-25T00:12:54;5.30;99.90
59556;DHT22;45374;52.746;6.304;2023-04-25T00:15:19;5.20;99.90
59556;DHT22;45374;52.746;6.304;2023-04-25T00:17:45;5.20;99.90
59556;DHT22;45374;52.746;6.304;2023-04-25T00:20:11;5.10;99.90
59556;DHT22;45374;52.746;6.304;2023-04-25T00:22:37;5.00;99.90
59556;DHT22;45374;52.746;6.304;2023-04-25T00:25:06;5.00;99.90
59556;DHT22;45374;52.746;6.304;2023-04-25T00:27:32;5.00;99.90
59556;DHT22;45374;52.746;6.304;2023-04-25T00:29:57;5.00;99.90
59556;DHT22;45374;52.746;6.304;2023-04-25T00:32:23;4.90;99.90
59556;DHT22;45374;52.746;6.304;2023-04-25T00:35:02;4.90;99.90
59556;DHT22;45374;52.746;6.304;2023-04-25T00:37:28;4.90;99.90
59556;DHT22;45374;52.746;6.304;2023-04-25T00:39:53;4.80;99.90
59556;DHT22;45374;52.746;6.304;2023-04-25T00:42:21;4.80;99.90
59556;DHT22;45374;52.746;6.304;2023-04-25T00:44:47;4.80;99.90
59556;DHT22;45374;52.746;6.304;2023-04-25T00:47:13;4.70;99.90
59556;DHT22;45374;52.746;6.304;2023-04-25T00:49:38;4.70;99.90
59556;DHT22;45374;52.746;6.304;2023-04-25T00:52:04;4.70;99.90
59556;DHT22;45374;52.746;6.304;2023-04-25T00:54:35;4.60;99.90
59556;DHT22;45374;52.746;6.304;2023-04-25T00:57:01;4.70;99.90
59556;DHT22;45374;52.746;6.304;2023-04-25T00:59:28;4.60;99.90
59556;DHT22;45374;52.746;6.304;2023-04-25T01:01:54;4.60;99.90
59556;DHT22;45374;52.746;6.304;2023-04-25T01:04:24;4.60;99.90
59556;DHT22;45374;52.746;6.304;2023-04-25T01:06:49;4.50;99.90
59556;DHT22;45374;52.746;6.304;2023-04-25T01:09:15;4.60;99.90
59556;DHT22;45374;52.746;6.304;2023-04-25T01:11:41;4.50;99.90
59556;DHT22;45374;52.746;6.304;2023-04-25T01:14:15;4.50;99.90
59556;DHT22;45374;52.746;6.304;2023-04-25T01:16:41;4.50;99.90
59556;DHT22;45374;52.746;6.304;2023-04-25T01:19:09;4.50;99.90
59556;DHT22;45374;52.746;6.304;2023-04-25T01:21:38;4.50;99.90
59556;DHT22;45374;52.746;6.304;2023-04-25T01:24:04;4.60;99.90
59556;DHT22;45374;52.746;6.304;2023-04-25T01:26:30;4.70;99.90
59556;DHT22;45374;52.746;6.304;2023-04-25T01:28:56;4.70;99.90
59556;DHT22;45374;52.746;6.304;2023-04-25T01:31:23;4.80;99.90
59556;DHT22;45374;52.746;6.304;2023-04-25T01:33:49;4.90;99.90
59556;DHT22;45374;52.746;6.304;2023-04-25T01:36:15;5.00;99.90
59556;DHT22;45374;52.746;6.304;2023-04-25T01:38:40;5.10;99.90
59556;DHT22;45374;52.746;6.304;2023-04-25T01:41:07;5.10;99.90
59556;DHT22;45374;52.746;6.304;2023-04-25T01:43:32;5.10;99.90
59556;DHT22;45374;52.746;6.304;2023-04-25T01:45:58;5.20;99.90
59556;DHT22;45374;52.746;6.304;2023-04-25T01:48:24;5.10;99.90
59556;DHT22;45374;52.746;6.304;2023-04-25T01:50:50;5.10;99.90
59556;DHT22;45374;52.746;6.304;2023-04-25T01:53:16;5.10;99.90
59556;DHT22;45374;52.746;6.304;2023-04-25T01:55:41;5.20;99.90
59556;DHT22;45374;52.746;6.304;2023-04-25T01:58:08;5.10;99.90
59556;DHT22;45374;52.746;6.304;2023-04-25T02:00:35;5.20;99.90
59556;DHT22;45374;52.746;6.304;2023-04-25T02:03:03;5.20;99.90
59556;DHT22;45374;52.746;6.304;2023-04-25T02:05:33;5.30;99.90
59556;DHT22;45374;52.746;6.304;2023-04-25T02:07:58;5.20;99.90
59556;DHT22;45374;52.746;6.304;2023-04-25T02:10:24;5.20;99.90
59556;DHT22;45374;52.746;6.304;2023-04-25T02:12:50;5.30;99.90
59556;DHT22;45374;52.746;6.304;2023-04-25T02:15:15;5.20;99.90
59556;DHT22;45374;52.746;6.304;2023-04-25T02:17:41;5.30;99.90
59556;DHT22;45374;52.746;6.304;2023-04-25T02:20:06;5.20;99.90
59556;DHT22;45374;52.746;6.304;2023-04-25T02:22:32;5.20;99.90
59556;DHT22;45374;52.746;6.304;2023-04-25T02:24:59;5.20;99.90
59556;DHT22;45374;52.746;6.304;2023-04-25T02:27:24;5.20;99.90
59556;DHT22;45374;52.746;6.304;2023-04-25T02:29:50;5.30;99.90
59556;DHT22;45374;52.746;6.304;2023-04-25T02:32:15;5.20;99.90
59556;DHT22;45374;52.746;6.304;2023-04-25T02:34:41;5.30;99.90
59556;DHT22;45374;52.746;6.304;2023-04-25T02:37:07;5.20;99.90
59556;DHT22;45374;52.746;6.304;2023-04-25T02:39:32;5.30;99.90
59556;DHT22;45374;52.746;6.304;2023-04-25T02:41:58;5.40;99.90
59556;DHT22;45374;52.746;6.304;2023-04-25T02:44:23;5.40;99.90
59556;DHT22;45374;52.746;6.304;2023-04-25T02:46:49;5.50;99.90
59556;DHT22;45374;52.746;6.304;2023-04-25T02:49:14;5.50;99.90
59556;DHT22;45374;52.746;6.304;2023-04-25T02:51:40;5.50;99.90
59556;DHT22;45374;52.746;6.304;2023-04-25T02:54:05;5.50;99.90
59556;DHT22;45374;52.746;6.304;2023-04-25T02:56:31;5.50;99.90
59556;DHT22;45374;52.746;6.304;2023-04-25T02:58:57;5.50;99.90
59556;DHT22;45374;52.746;6.304;2023-04-25T03:01:22;5.50;99.90
59556;DHT22;45374;52.746;6.304;2023-04-25T03:03:48;5.40;99.90
59556;DHT22;45374;52.746;6.304;2023-04-25T03:06:14;5.40;99.90
59556;DHT22;45374;52.746;6.304;2023-04-25T03:08:40;5.30;99.90
59556;DHT22;45374;52.746;6.304;2023-04-25T03:11:06;5.30;99.90
59556;DHT22;45374;52.746;6.304;2023-04-25T03:13:31;5.20;99.90
59556;DHT22;45374;52.746;6.304;2023-04-25T03:15:59;5.20;99.90
59556;DHT22;45374;52.746;6.304;2023-04-25T03:18:25;5.20;99.90
59556;DHT22;45374;52.746;6.304;2023-04-25T03:20:51;5.20;99.90
59556;DHT22;45374;52.746;6.304;2023-04-25T03:23:16;5.20;99.90
59556;DHT22;45374;52.746;6.304;2023-04-25T03:25:42;5.10;99.90
59556;DHT22;45374;52.746;6.304;2023-04-25T03:28:11;5.20;99.90
59556;DHT22;45374;52.746;6.304;2023-04-25T03:30:36;5.20;99.90
59556;DHT22;45374;52.746;6.304;2023-04-25T03:33:02;5.20;99.90
59556;DHT22;45374;52.746;6.304;2023-04-25T03:35:28;5.30;99.90
59556;DHT22;45374;52.746;6.304;2023-04-25T03:37:53;5.20;99.90
59556;DHT22;45374;52.746;6.304;2023-04-25T03:40:19;5.30;99.90
59556;DHT22;45374;52.746;6.304;2023-04-25T03:42:44;5.30;99.90
59556;DHT22;45374;52.746;6.304;2023-04-25T03:45:10;5.20;99.90
59556;DHT22;45374;52.746;6.304;2023-04-25T03:47:36;5.20;99.90
59556;DHT22;45374;52.746;6.304;2023-04-25T03:50:02;5.20;99.90
59556;DHT22;45374;52.746;6.304;2023-04-25T03:52:28;5.20;99.90
59556;DHT22;45374;52.746;6.304;2023-04-25T03:54:53;5.20;99.90
59556;DHT22;45374;52.746;6.304;2023-04-25T03:57:19;5.20;99.90
59556;DHT22;45374;52.746;6.304;2023-04-25T03:59:44;5.20;99.90
59556;DHT22;45374;52.746;6.304;2023-04-25T04:02:10;5.10;99.90
59556;DHT22;45374;52.746;6.304;2023-04-25T04:04:36;5.10;99.90
59556;DHT22;45374;52.746;6.304;2023-04-25T04:07:02;5.00;99.90
59556;DHT22;45374;52.746;6.304;2023-04-25T04:09:27;4.90;99.90
59556;DHT22;45374;52.746;6.304;2023-04-25T04:11:53;4.90;99.90
59556;DHT22;45374;52.746;6.304;2023-04-25T04:14:18;4.70;99.90
59556;DHT22;45374;52.746;6.304;2023-04-25T04:16:44;4.70;99.90
59556;DHT22;45374;52.746;6.304;2023-04-25T04:19:10;4.70;99.90
59556;DHT22;45374;52.746;6.304;2023-04-25T04:21:36;4.70;99.90
59556;DHT22;45374;52.746;6.304;2023-04-25T04:24:01;4.70;99.90
59556;DHT22;45374;52.746;6.304;2023-04-25T04:26:27;4.70;99.90
59556;DHT22;45374;52.746;6.304;2023-04-25T04:28:53;4.70;99.90
59556;DHT22;45374;52.746;6.304;2023-04-25T04:31:23;4.80;99.90
59556;DHT22;45374;52.746;6.304;2023-04-25T04:33:49;4.80;99.90
59556;DHT22;45374;52.746;6.304;2023-04-25T04:36:15;4.80;99.90
59556;DHT22;45374;52.746;6.304;2023-04-25T04:38:41;4.90;99.90
59556;DHT22;45374;52.746;6.304;2023-04-25T04:41:07;5.00;99.90
59556;DHT22;45374;52.746;6.304;2023-04-25T04:43:33;4.90;99.90
59556;DHT22;45374;52.746;6.304;2023-04-25T04:46:00;4.90;99.90
59556;DHT22;45374;52.746;6.304;2023-04-25T04:48:26;4.90;99.90
59556;DHT22;45374;52.746;6.304;2023-04-25T04:50:52;4.90;99.90
59556;DHT22;45374;52.746;6.304;2023-04-25T04:53:17;4.90;99.90
59556;DHT22;45374;52.746;6.304;2023-04-25T04:55:43;4.90;99.90
59556;DHT22;45374;52.746;6.304;2023-04-25T04:58:09;4.90;99.90
59556;DHT22;45374;52.746;6.304;2023-04-25T05:00:35;4.90;99.90
59556;DHT22;45374;52.746;6.304;2023-04-25T05:03:02;4.80;99.90
59556;DHT22;45374;52.746;6.304;2023-04-25T05:05:28;4.80;99.90
59556;DHT22;45374;52.746;6.304;2023-04-25T05:07:54;4.80;99.90
59556;DHT22;45374;52.746;6.304;2023-04-25T05:10:20;4.90;99.90
59556;DHT22;45374;52.746;6.304;2023-04-25T05:12:46;4.90;99.90
59556;DHT22;45374;52.746;6.304;2023-04-25T05:15:13;4.90;99.90
59556;DHT22;45374;52.746;6.304;2023-04-25T05:17:39;4.80;99.90
59556;DHT22;45374;52.746;6.304;2023-04-25T05:20:06;4.80;99.90
59556;DHT22;45374;52.746;6.304;2023-04-25T05:22:33;4.80;99.90
59556;DHT22;45374;52.746;6.304;2023-04-25T05:24:58;4.80;99.90
59556;DHT22;45374;52.746;6.304;2023-04-25T05:27:24;4.70;99.90
59556;DHT22;45374;52.746;6.304;2023-04-25T05:29:49;4.70;99.90
59556;DHT22;45374;52.746;6.304;2023-04-25T05:32:15;4.70;99.90
59556;DHT22;45374;52.746;6.304;2023-04-25T05:34:41;4.70;99.90
59556;DHT22;45374;52.746;6.304;2023-04-25T05:37:07;4.70;99.90
59556;DHT22;45374;52.746;6.304;2023-04-25T05:39:33;4.80;99.90
59556;DHT22;45374;52.746;6.304;2023-04-25T05:41:58;4.90;99.90
59556;DHT22;45374;52.746;6.304;2023-04-25T05:44:24;5.00;99.90
59556;DHT22;45374;52.746;6.304;2023-04-25T05:46:50;5.10;99.90
59556;DHT22;45374;52.746;6.304;2023-04-25T05:49:15;5.20;99.90
59556;DHT22;45374;52.746;6.304;2023-04-25T05:51:41;5.30;99.90
59556;DHT22;45374;52.746;6.304;2023-04-25T05:54:07;5.40;99.90
59556;DHT22;45374;52.746;6.304;2023-04-25T05:56:32;5.50;99.90
59556;DHT22;45374;52.746;6.304;2023-04-25T05:58:58;5.50;99.90
59556;DHT22;45374;52.746;6.304;2023-04-25T06:01:23;5.50;99.90
59556;DHT22;45374;52.746;6.304;2023-04-25T06:03:49;5.50;99.90
59556;DHT22;45374;52.746;6.304;2023-04-25T06:06:16;5.50;99.90
59556;DHT22;45374;52.746;6.304;2023-04-25T06:08:42;5.50;99.90
59556;DHT22;45374;52.746;6.304;2023-04-25T06:11:07;5.60;99.90
59556;DHT22;45374;52.746;6.304;2023-04-25T06:13:33;5.60;99.90
59556;DHT22;45374;52.746;6.304;2023-04-25T06:15:58;5.70;99.90
59556;DHT22;45374;52.746;6.304;2023-04-25T06:18:24;5.70;99.90
59556;DHT22;45374;52.746;6.304;2023-04-25T06:20:50;5.80;99.90
59556;DHT22;45374;52.746;6.304;2023-04-25T06:23:15;5.80;99.90
59556;DHT22;45374;52.746;6.304;2023-04-25T06:25:40;5.90;99.90
59556;DHT22;45374;52.746;6.304;2023-04-25T06:28:06;6.00;99.90
59556;DHT22;45374;52.746;6.304;2023-04-25T06:30:32;6.00;99.90
59556;DHT22;45374;52.746;6.304;2023-04-25T06:32:57;5.90;99.90
59556;DHT22;45374;52.746;6.304;2023-04-25T06:35:23;5.90;99.90
59556;DHT22;45374;52.746;6.304;2023-04-25T06:37:48;6.00;99.90
59556;DHT22;45374;52.746;6.304;2023-04-25T06:40:14;6.10;99.90
59556;DHT22;45374;52.746;6.304;2023-04-25T06:42:40;6.20;99.90
59556;DHT22;45374;52.746;6.304;2023-04-25T06:45:06;6.30;99.90
59556;DHT22;45374;52.746;6.304;2023-04-25T06:47:31;6.40;99.90
59556;DHT22;45374;52.746;6.304;2023-04-25T06:49:57;6.50;99.90
59556;DHT22;45374;52.746;6.304;2023-04-25T06:52:22;6.50;99.90
59556;DHT22;45374;52.746;6.304;2023-04-25T06:54:48;6.60;99.90
59556;DHT22;45374;52.746;6.304;2023-04-25T06:57:14;6.60;99.90
59556;DHT22;45374;52.746;6.304;2023-04-25T06:59:40;6.70;99.90
59556;DHT22;45374;52.746;6.304;2023-04-25T07:02:05;6.80;99.90
59556;DHT22;45374;52.746;6.304;2023-04-25T07:04:31;6.90;99.90
59556;DHT22;45374;52.746;6.304;2023-04-25T07:06:57;7.00;99.90
59556;DHT22;45374;52.746;6.304;2023-04-25T07:09:22;7.10;99.90
59556;DHT22;45374;52.746;6.304;2023-04-25T07:11:48;7.30;99.90
59556;DHT22;45374;52.746;6.304;2023-04-25T07:14:13;7.30;99.90
59556;DHT22;45374;52.746;6.304;2023-04-25T07:16:39;7.30;99.90
59556;DHT22;45374;52.746;6.304;2023-04-25T07:19:05;7.40;99.90
59556;DHT22;45374;52.746;6.304;2023-04-25T07:21:30;7.30;99.90
59556;DHT22;45374;52.746;6.304;2023-04-25T07:23:57;7.30;99.90
59556;DHT22;45374;52.746;6.304;2023-04-25T07:26:22;7.30;99.90
59556;DHT22;45374;52.746;6.304;2023-04-25T07:28:48;7.40;99.90
59556;DHT22;45374;52.746;6.304;2023-04-25T07:31:19;7.40;99.90
59556;DHT22;45374;52.746;6.304;2023-04-25T07:33:45;7.30;99.90
59556;DHT22;45374;52.746;6.304;2023-04-25T07:36:11;7.30;99.90
59556;DHT22;45374;52.746;6.304;2023-04-25T07:38:37;7.10;99.90
59556;DHT22;45374;52.746;6.304;2023-04-25T07:41:03;7.00;99.90
59556;DHT22;45374;52.746;6.304;2023-04-25T07:43:29;6.90;99.90
59556;DHT22;45374;52.746;6.304;2023-04-25T07:45:54;7.10;99.90
59556;DHT22;45374;52.746;6.304;2023-04-25T07:48:20;7.30;99.90
59556;DHT22;45374;52.746;6.304;2023-04-25T07:50:45;7.50;99.90
59556;DHT22;45374;52.746;6.304;2023-04-25T07:53:11;7.60;99.90
59556;DHT22;45374;52.746;6.304;2023-04-25T07:55:36;7.80;99.90
59556;DHT22;45374;52.746;6.304;2023-04-25T07:58:08;7.90;99.90
59556;DHT22;45374;52.746;6.304;2023-04-25T08:00:34;8.00;99.90
59556;DHT22;45374;52.746;6.304;2023-04-25T08:03:00;8.00;99.90
59556;DHT22;45374;52.746;6.304;2023-04-25T08:05:25;8.10;99.90
59556;DHT22;45374;52.746;6.304;2023-04-25T08:07:51;8.10;99.90
59556;DHT22;45374;52.746;6.304;2023-04-25T08:10:17;8.00;99.90
59556;DHT22;45374;52.746;6.304;2023-04-25T08:12:42;7.50;99.90
59556;DHT22;45374;52.746;6.304;2023-04-25T08:15:08;6.80;99.90
59556;DHT22;45374;52.746;6.304;2023-04-25T08:17:34;6.00;99.90
59556;DHT22;45374;52.746;6.304;2023-04-25T08:20:00;5.50;99.90
59556;DHT22;45374;52.746;6.304;2023-04-25T08:22:25;5.10;99.90
59556;DHT22;45374;52.746;6.304;2023-04-25T08:24:51;5.00;99.90
59556;DHT22;45374;52.746;6.304;2023-04-25T08:27:18;4.90;99.90
59556;DHT22;45374;52.746;6.304;2023-04-25T08:29:43;5.00;99.90
59556;DHT22;45374;52.746;6.304;2023-04-25T08:32:09;5.10;99.90
59556;DHT22;45374;52.746;6.304;2023-04-25T08:34:34;5.20;99.90
59556;DHT22;45374;52.746;6.304;2023-04-25T08:37:02;5.30;99.90
59556;DHT22;45374;52.746;6.304;2023-04-25T08:39:29;5.40;99.90
59556;DHT22;45374;52.746;6.304;2023-04-25T08:41:56;5.50;99.90
59556;DHT22;45374;52.746;6.304;2023-04-25T08:44:22;5.70;99.90
59556;DHT22;45374;52.746;6.304;2023-04-25T08:46:48;5.70;99.90
59556;DHT22;45374;52.746;6.304;2023-04-25T08:49:17;5.80;99.90
59556;DHT22;45374;52.746;6.304;2023-04-25T08:51:45;6.00;99.90
59556;DHT22;45374;52.746;6.304;2023-04-25T08:54:15;6.20;99.90
59556;DHT22;45374;52.746;6.304;2023-04-25T08:56:44;6.40;99.90
59556;DHT22;45374;52.746;6.304;2023-04-25T08:59:11;6.80;99.90
59556;DHT22;45374;52.746;6.304;2023-04-25T09:01:37;7.10;99.90
59556;DHT22;45374;52.746;6.304;2023-04-25T09:04:03;7.50;99.90
59556;DHT22;45374;52.746;6.304;2023-04-25T09:06:29;7.80;99.90
59556;DHT22;45374;52.746;6.304;2023-04-25T09:09:02;8.00;99.90
59556;DHT22;45374;52.746;6.304;2023-04-25T09:11:29;8.30;99.90
59556;DHT22;45374;52.746;6.304;2023-04-25T09:14:22;8.40;99.90
59556;DHT22;45374;52.746;6.304;2023-04-25T09:21:54;8.40;99.90
59556;DHT22;45374;52.746;6.304;2023-04-25T09:24:30;8.10;99.90
59556;DHT22;45374;52.746;6.304;2023-04-25T09:26:56;7.90;99.90
59556;DHT22;45374;52.746;6.304;2023-04-25T09:29:30;7.90;99.90
59556;DHT22;45374;52.746;6.304;2023-04-25T09:32:18;8.00;99.90
59556;DHT22;45374;52.746;6.304;2023-04-25T09:34:55;8.10;99.90
59556;DHT22;45374;52.746;6.304;2023-04-25T09:37:27;8.40;99.90
59556;DHT22;45374;52.746;6.304;2023-04-25T09:39:54;8.50;99.90
59556;DHT22;45374;52.746;6.304;2023-04-25T09:42:24;8.70;99.90
59556;DHT22;45374;52.746;6.304;2023-04-25T09:44:52;8.70;99.90
59556;DHT22;45374;52.746;6.304;2023-04-25T09:47:18;8.80;99.90
59556;DHT22;45374;52.746;6.304;2023-04-25T09:49:47;8.90;99.90
59556;DHT22;45374;52.746;6.304;2023-04-25T09:52:17;9.10;99.90
59556;DHT22;45374;52.746;6.304;2023-04-25T09:54:43;9.20;99.90
59556;DHT22;45374;52.746;6.304;2023-04-25T09:57:15;9.30;99.90
59556;DHT22;45374;52.746;6.304;2023-04-25T09:59:50;9.50;99.90
59556;DHT22;45374;52.746;6.304;2023-04-25T10:02:18;9.60;99.90
59556;DHT22;45374;52.746;6.304;2023-04-25T10:04:49;9.70;99.90
59556;DHT22;45374;52.746;6.304;2023-04-25T10:07:16;9.60;99.90
59556;DHT22;45374;52.746;6.304;2023-04-25T10:09:44;9.50;99.90
59556;DHT22;45374;52.746;6.304;2023-04-25T10:12:12;9.30;99.90
59556;DHT22;45374;52.746;6.304;2023-04-25T10:14:38;9.20;99.90
59556;DHT22;45374;52.746;6.304;2023-04-25T10:17:05;9.10;99.90
59556;DHT22;45374;52.746;6.304;2023-04-25T10:19:32;8.70;99.90
59556;DHT22;45374;52.746;6.304;2023-04-25T10:22:06;8.20;99.90
59556;DHT22;45374;52.746;6.304;2023-04-25T10:24:32;7.80;99.90
59556;DHT22;45374;52.746;6.304;2023-04-25T10:26:58;7.60;99.90
59556;DHT22;45374;52.746;6.304;2023-04-25T10:29:25;7.20;99.90
59556;DHT22;45374;52.746;6.304;2023-04-25T10:31:51;7.00;99.90
59556;DHT22;45374;52.746;6.304;2023-04-25T10:34:17;7.00;99.90
59556;DHT22;45374;52.746;6.304;2023-04-25T10:36:50;7.00;99.90
59556;DHT22;45374;52.746;6.304;2023-04-25T10:39:22;7.20;99.90
59556;DHT22;45374;52.746;6.304;2023-04-25T10:41:53;7.30;99.90
59556;DHT22;45374;52.746;6.304;2023-04-25T10:44:20;7.50;99.90
59556;DHT22;45374;52.746;6.304;2023-04-25T10:46:46;7.50;99.90
59556;DHT22;45374;52.746;6.304;2023-04-25T10:49:37;7.60;99.90
59556;DHT22;45374;52.746;6.304;2023-04-25T10:52:14;7.70;99.90
59556;DHT22;45374;52.746;6.304;2023-04-25T10:54:47;7.70;99.90
59556;DHT22;45374;52.746;6.304;2023-04-25T10:57:42;7.80;99.90
59556;DHT22;45374;52.746;6.304;2023-04-25T11:00:13;7.90;99.90
59556;DHT22;45374;52.746;6.304;2023-04-25T11:02:51;8.00;99.90
59556;DHT22;45374;52.746;6.304;2023-04-25T11:07:54;8.30;99.90
59556;DHT22;45374;52.746;6.304;2023-04-25T11:10:32;8.50;99.90
59556;DHT22;45374;52.746;6.304;2023-04-25T11:12:58;8.60;99.90
59556;DHT22;45374;52.746;6.304;2023-04-25T11:15:25;8.70;99.90
59556;DHT22;45374;52.746;6.304;2023-04-25T11:17:55;8.80;99.90
59556;DHT22;45374;52.746;6.304;2023-04-25T11:20:21;8.90;99.90
59556;DHT22;45374;52.746;6.304;2023-04-25T11:22:47;9.00;99.90
59556;DHT22;45374;52.746;6.304;2023-04-25T11:25:14;9.10;99.90
59556;DHT22;45374;52.746;6.304;2023-04-25T11:27:54;9.30;99.90
59556;DHT22;45374;52.746;6.304;2023-04-25T11:30:20;9.40;99.90
59556;DHT22;45374;52.746;6.304;2023-04-25T11:32:46;9.50;99.90
59556;DHT22;45374;52.746;6.304;2023-04-25T11:35:13;9.60;99.90
59556;DHT22;45374;52.746;6.304;2023-04-25T11:37:41;9.70;99.90
59556;DHT22;45374;52.746;6.304;2023-04-25T11:40:08;9.80;99.90
59556;DHT22;45374;52.746;6.304;2023-04-25T11:42:37;9.80;99.90
59556;DHT22;45374;52.746;6.304;2023-04-25T11:45:03;9.60;99.90
59556;DHT22;45374;52.746;6.304;2023-04-25T11:47:31;9.40;99.90
59556;DHT22;45374;52.746;6.304;2023-04-25T11:50:01;9.20;99.90
59556;DHT22;45374;52.746;6.304;2023-04-25T11:52:41;9.20;99.90
59556;DHT22;45374;52.746;6.304;2023-04-25T11:55:08;9.40;99.90
59556;DHT22;45374;52.746;6.304;2023-04-25T11:57:35;9.50;99.90
59556;DHT22;45374;52.746;6.304;2023-04-25T12:00:11;9.70;99.90
59556;DHT22;45374;52.746;6.304;2023-04-25T12:02:54;10.00;99.90
59556;DHT22;45374;52.746;6.304;2023-04-25T12:05:24;10.10;99.90
59556;DHT22;45374;52.746;6.304;2023-04-25T12:07:50;10.00;99.90
59556;DHT22;45374;52.746;6.304;2023-04-25T12:10:17;9.90;99.90
59556;DHT22;45374;52.746;6.304;2023-04-25T12:12:45;9.90;99.90
59556;DHT22;45374;52.746;6.304;2023-04-25T12:15:12;9.60;99.90
59556;DHT22;45374;52.746;6.304;2023-04-25T12:17:40;8.90;99.90
59556;DHT22;45374;52.746;6.304;2023-04-25T12:20:12;8.40;99.90
59556;DHT22;45374;52.746;6.304;2023-04-25T12:22:44;8.10;99.90
59556;DHT22;45374;52.746;6.304;2023-04-25T12:25:33;8.10;99.90
59556;DHT22;45374;52.746;6.304;2023-04-25T12:28:19;8.10;99.90
59556;DHT22;45374;52.746;6.304;2023-04-25T12:31:01;8.10;99.90
59556;DHT22;45374;52.746;6.304;2023-04-25T12:33:30;8.20;99.90
59556;DHT22;45374;52.746;6.304;2023-04-25T12:35:56;8.70;99.90
59556;DHT22;45374;52.746;6.304;2023-04-25T12:38:27;9.10;99.90
59556;DHT22;45374;52.746;6.304;2023-04-25T12:40:56;9.20;99.90
59556;DHT22;45374;52.746;6.304;2023-04-25T12:43:22;9.20;99.90
59556;DHT22;45374;52.746;6.304;2023-04-25T12:45:52;9.00;99.90
59556;DHT22;45374;52.746;6.304;2023-04-25T12:48:18;8.90;99.90
59556;DHT22;45374;52.746;6.304;2023-04-25T12:50:44;9.10;99.90
59556;DHT22;45374;52.746;6.304;2023-04-25T12:53:10;9.20;99.90
59556;DHT22;45374;52.746;6.304;2023-04-25T12:55:36;9.40;99.90
59556;DHT22;45374;52.746;6.304;2023-04-25T12:58:03;9.70;99.90
59556;DHT22;45374;52.746;6.304;2023-04-25T13:00:29;9.80;99.90
59556;DHT22;45374;52.746;6.304;2023-04-25T13:02:55;9.80;99.90
59556;DHT22;45374;52.746;6.304;2023-04-25T13:05:21;9.60;99.90
59556;DHT22;45374;52.746;6.304;2023-04-25T13:07:47;9.50;99.90
59556;DHT22;45374;52.746;6.304;2023-04-25T13:10:13;9.20;99.90
59556;DHT22;45374;52.746;6.304;2023-04-25T13:12:38;9.00;99.90
59556;DHT22;45374;52.746;6.304;2023-04-25T13:15:04;8.60;99.90
59556;DHT22;45374;52.746;6.304;2023-04-25T13:17:30;8.20;99.90
59556;DHT22;45374;52.746;6.304;2023-04-25T13:19:55;8.00;99.90
59556;DHT22;45374;52.746;6.304;2023-04-25T13:22:21;7.70;99.90
59556;DHT22;45374;52.746;6.304;2023-04-25T13:24:47;7.70;99.90
59556;DHT22;45374;52.746;6.304;2023-04-25T13:27:14;7.70;99.90
59556;DHT22;45374;52.746;6.304;2023-04-25T13:29:39;7.90;99.90
59556;DHT22;45374;52.746;6.304;2023-04-25T13:32:06;8.10;99.90
59556;DHT22;45374;52.746;6.304;2023-04-25T13:34:32;8.30;99.90
59556;DHT22;45374;52.746;6.304;2023-04-25T13:36:57;8.30;99.90
59556;DHT22;45374;52.746;6.304;2023-04-25T13:39:23;8.40;99.90
59556;DHT22;45374;52.746;6.304;2023-04-25T13:41:48;8.50;99.90
59556;DHT22;45374;52.746;6.304;2023-04-25T13:44:14;8.50;99.90
59556;DHT22;45374;52.746;6.304;2023-04-25T13:46:39;8.40;99.90
59556;DHT22;45374;52.746;6.304;2023-04-25T13:49:05;8.30;99.90
59556;DHT22;45374;52.746;6.304;2023-04-25T13:51:31;8.10;99.90
59556;DHT22;45374;52.746;6.304;2023-04-25T13:53:57;7.80;99.90
59556;DHT22;45374;52.746;6.304;2023-04-25T13:56:23;7.70;99.90
59556;DHT22;45374;52.746;6.304;2023-04-25T13:58:52;7.70;99.90
59556;DHT22;45374;52.746;6.304;2023-04-25T14:01:18;7.80;99.90
59556;DHT22;45374;52.746;6.304;2023-04-25T14:03:44;8.00;99.90
59556;DHT22;45374;52.746;6.304;2023-04-25T14:06:11;8.10;99.90
59556;DHT22;45374;52.746;6.304;2023-04-25T14:08:38;8.40;99.90
59556;DHT22;45374;52.746;6.304;2023-04-25T14:11:04;8.70;99.90
59556;DHT22;45374;52.746;6.304;2023-04-25T14:13:29;9.00;99.90
59556;DHT22;45374;52.746;6.304;2023-04-25T14:15:55;8.90;99.90
59556;DHT22;45374;52.746;6.304;2023-04-25T14:18:20;8.50;99.90
59556;DHT22;45374;52.746;6.304;2023-04-25T14:20:46;8.00;99.90
59556;DHT22;45374;52.746;6.304;2023-04-25T14:23:11;7.70;99.90
59556;DHT22;45374;52.746;6.304;2023-04-25T14:25:37;7.40;99.90
59556;DHT22;45374;52.746;6.304;2023-04-25T14:28:03;7.20;99.90
59556;DHT22;45374;52.746;6.304;2023-04-25T14:30:28;7.10;99.90
59556;DHT22;45374;52.746;6.304;2023-04-25T14:32:54;7.10;99.90
59556;DHT22;45374;52.746;6.304;2023-04-25T14:35:20;7.20;99.90
59556;DHT22;45374;52.746;6.304;2023-04-25T14:37:46;7.40;99.90
59556;DHT22;45374;52.746;6.304;2023-04-25T14:40:12;7.50;99.90
59556;DHT22;45374;52.746;6.304;2023-04-25T14:42:39;7.60;99.90
59556;DHT22;45374;52.746;6.304;2023-04-25T14:45:05;7.70;99.90
59556;DHT22;45374;52.746;6.304;2023-04-25T14:47:32;7.90;99.90
59556;DHT22;45374;52.746;6.304;2023-04-25T14:49:59;8.10;99.90
59556;DHT22;45374;52.746;6.304;2023-04-25T14:52:24;8.50;99.90
59556;DHT22;45374;52.746;6.304;2023-04-25T14:54:51;9.00;99.90
59556;DHT22;45374;52.746;6.304;2023-04-25T14:57:17;9.20;99.90
59556;DHT22;45374;52.746;6.304;2023-04-25T14:59:42;9.10;99.90
59556;DHT22;45374;52.746;6.304;2023-04-25T15:02:08;8.90;99.90
59556;DHT22;45374;52.746;6.304;2023-04-25T15:04:33;8.70;99.90
59556;DHT22;45374;52.746;6.304;2023-04-25T15:06:59;8.60;99.90
59556;DHT22;45374;52.746;6.304;2023-04-25T15:09:27;8.50;99.90
59556;DHT22;45374;52.746;6.304;2023-04-25T15:11:53;8.30;99.90
59556;DHT22;45374;52.746;6.304;2023-04-25T15:14:18;8.70;99.90
59556;DHT22;45374;52.746;6.304;2023-04-25T15:16:44;9.10;99.90
59556;DHT22;45374;52.746;6.304;2023-04-25T15:19:09;9.40;99.90
59556;DHT22;45374;52.746;6.304;2023-04-25T15:21:35;9.40;99.90
59556;DHT22;45374;52.746;6.304;2023-04-25T15:24:01;9.70;99.90
59556;DHT22;45374;52.746;6.304;2023-04-25T15:26:27;9.70;99.90
59556;DHT22;45374;52.746;6.304;2023-04-25T15:28:52;9.60;99.90
59556;DHT22;45374;52.746;6.304;2023-04-25T15:31:18;9.20;99.90
59556;DHT22;45374;52.746;6.304;2023-04-25T15:33:44;8.80;99.90
59556;DHT22;45374;52.746;6.304;2023-04-25T15:36:09;8.40;99.90
59556;DHT22;45374;52.746;6.304;2023-04-25T15:38:35;8.20;99.90
59556;DHT22;45374;52.746;6.304;2023-04-25T15:41:01;8.10;99.90
59556;DHT22;45374;52.746;6.304;2023-04-25T15:43:27;8.10;99.90
59556;DHT22;45374;52.746;6.304;2023-04-25T15:45:53;8.30;99.90
59556;DHT22;45374;52.746;6.304;2023-04-25T15:48:18;8.50;99.90
59556;DHT22;45374;52.746;6.304;2023-04-25T15:50:44;8.60;99.90